Terminal Aerodrome Forecast
Issued by NWS

Home | Current Version | Previous Version | Text Only | Print | Product List | Glossary On
Versions: 1 2 3 4 5 6 7 8 9 10 11 12
000
FTUS42 KTAE 101100
TAFABY
TAF
KABY 101125Z 1012/1112 24005KT P6SM FEW016 SCT040
     FM101900 22009KT P6SM SHRA VCTS BKN040CB
      TEMPO 1020/1024 3SM +TSRA SCT015 OVC030CB
     FM110300 25003KT P6SM SCT100 OVC250
     FM110900 00000KT P6SM SCT250=

USA.gov is the U.S. government's official web portal to all federal, state and local government web resources and services.